Time;durP1;ratioP1;P1;durP2;ratioP2;P2;SDS_P1;SDS_P2;PMS_P1;PMS_P2;Temp;Humidity;BMP_temperature;BMP_pressure;BME280_temperature;BME280_humidity;BME280_pressure;Samples;Min_cycle;Max_cycle;Signal;HPM_P1;HPM_P2
2024/01/29 00:01:15;;;;;;;18.27;10.55;;;;;;;;;;4950829;28;20052;-63
2024/01/29 00:03:43;;;;;;;20.70;11.90;;;;;;;;;;4954440;28;20047;-63
2024/01/29 00:06:09;;;;;;;19.77;11.75;;;;;;;;;;4953152;28;20047;-61
2024/01/29 00:08:36;;;;;;;19.05;10.35;;;;;;;;;;4953689;29;20054;-63
2024/01/29 00:11:02;;;;;;;20.92;11.15;;;;;;;;;;4954014;28;20065;-63
2024/01/29 00:13:28;;;;;;;19.08;10.55;;;;;;;;;;4950426;29;20036;-63
2024/01/29 00:15:55;;;;;;;19.65;11.18;;;;;;;;;;4954926;28;20066;-63
2024/01/29 00:18:21;;;;;;;22.95;11.48;;;;;;;;;;4953458;29;20042;-62
2024/01/29 00:20:48;;;;;;;19.95;11.52;;;;;;;;;;4951840;29;20047;-63
2024/01/29 00:23:14;;;;;;;20.02;10.75;;;;;;;;;;4954887;29;20039;-64
2024/01/29 00:25:40;;;;;;;18.58;11.63;;;;;;;;;;4967740;28;20039;-63
2024/01/29 00:28:07;;;;;;;19.45;11.68;;;;;;;;;;4952899;29;20035;-63
2024/01/29 00:30:33;;;;;;;20.85;11.20;;;;;;;;;;4953703;29;20039;-62
2024/01/29 00:32:59;;;;;;;22.25;12.02;;;;;;;;;;4954097;28;20039;-63
2024/01/29 00:35:26;;;;;;;19.10;11.18;;;;;;;;;;4954208;29;20039;-63
2024/01/29 00:37:52;;;;;;;20.17;11.43;;;;;;;;;;4952074;28;20070;-63
2024/01/29 00:40:19;;;;;;;17.27;10.15;;;;;;;;;;4952634;28;20054;-63
2024/01/29 00:42:45;;;;;;;17.08;10.15;;;;;;;;;;4952167;29;20027;-63
2024/01/29 00:45:12;;;;;;;16.10;9.13;;;;;;;;;;4951192;28;20402;-63
2024/01/29 00:47:38;;;;;;;16.77;9.25;;;;;;;;;;4953578;28;20043;-63
2024/01/29 00:50:05;;;;;;;17.35;9.32;;;;;;;;;;4949421;29;20046;-63
2024/01/29 00:52:33;;;;;;;18.60;10.25;;;;;;;;;;4952406;29;20035;-63
2024/01/29 00:54:59;;;;;;;17.10;8.82;;;;;;;;;;4950235;29;20638;-63
2024/01/29 00:57:26;;;;;;;14.60;8.63;;;;;;;;;;4951026;28;20038;-63
2024/01/29 00:59:52;;;;;;;15.60;8.85;;;;;;;;;;4952970;28;20062;-64
2024/01/29 01:02:18;;;;;;;15.43;8.35;;;;;;;;;;4948271;28;20050;-63
2024/01/29 01:04:44;;;;;;;15.68;8.80;;;;;;;;;;4952864;29;20039;-60
2024/01/29 01:07:10;;;;;;;15.65;9.00;;;;;;;;;;4953411;28;20070;-60
2024/01/29 01:09:36;;;;;;;13.15;9.02;;;;;;;;;;4947814;29;20400;-60
2024/01/29 01:12:03;;;;;;;14.48;8.45;;;;;;;;;;4951007;29;20048;-60
2024/01/29 01:14:29;;;;;;;13.77;8.85;;;;;;;;;;4951224;29;20043;-60
2024/01/29 01:16:55;;;;;;;17.58;9.00;;;;;;;;;;4953035;28;20030;-61
2024/01/29 01:19:22;;;;;;;15.85;9.07;;;;;;;;;;4952514;29;20047;-60
2024/01/29 01:21:48;;;;;;;16.38;8.85;;;;;;;;;;4949625;29;20418;-60
2024/01/29 01:24:14;;;;;;;16.77;8.20;;;;;;;;;;4951682;29;20043;-60
2024/01/29 01:26:40;;;;;;;14.20;8.25;;;;;;;;;;4952979;28;20062;-60
2024/01/29 01:29:06;;;;;;;11.45;7.22;;;;;;;;;;4949761;29;20043;-61
2024/01/29 01:31:33;;;;;;;12.00;7.13;;;;;;;;;;4949776;29;20594;-60
2024/01/29 01:33:59;;;;;;;13.20;6.93;;;;;;;;;;4951922;28;20043;-60
2024/01/29 01:36:25;;;;;;;10.20;6.57;;;;;;;;;;4950879;28;20491;-60
2024/01/29 01:38:51;;;;;;;10.45;6.30;;;;;;;;;;4948689;28;20047;-60
2024/01/29 01:41:17;;;;;;;10.70;6.28;;;;;;;;;;4953899;28;20043;-60
2024/01/29 01:43:43;;;;;;;11.55;6.05;;;;;;;;;;4951107;29;20023;-60
2024/01/29 01:46:22;;;;;;;9.20;5.47;;;;;;;;;;4951328;28;20403;-60
2024/01/29 01:48:51;;;;;;;9.88;6.38;;;;;;;;;;4952213;29;20691;-60
2024/01/29 01:51:19;;;;;;;8.85;5.90;;;;;;;;;;4949846;28;20044;-60
2024/01/29 01:53:45;;;;;;;10.20;5.93;;;;;;;;;;4946219;29;20411;-60
2024/01/29 01:56:13;;;;;;;9.45;5.68;;;;;;;;;;4949091;29;20048;-60
2024/01/29 01:58:41;;;;;;;9.20;5.90;;;;;;;;;;4953963;28;20059;-60
2024/01/29 02:01:08;;;;;;;12.77;6.07;;;;;;;;;;4945683;28;20058;-60
2024/01/29 02:03:34;;;;;;;8.90;5.97;;;;;;;;;;4949440;29;20031;-60
2024/01/29 02:06:01;;;;;;;9.50;5.13;;;;;;;;;;4937512;29;20051;-63
2024/01/29 02:08:27;;;;;;;11.30;6.30;;;;;;;;;;4951250;29;20043;-63
2024/01/29 02:10:56;;;;;;;8.77;5.72;;;;;;;;;;4949349;29;20388;-60
2024/01/29 02:13:22;;;;;;;8.13;5.32;;;;;;;;;;4952254;28;20050;-61
2024/01/29 02:15:48;;;;;;;9.43;5.57;;;;;;;;;;4951070;28;20403;-61
2024/01/29 02:18:14;;;;;;;9.00;4.60;;;;;;;;;;4948455;28;20046;-61
2024/01/29 02:20:41;;;;;;;6.43;4.32;;;;;;;;;;4943671;28;20518;-62
2024/01/29 02:23:07;;;;;;;8.07;4.38;;;;;;;;;;4952181;28;20035;-61
2024/01/29 02:25:33;;;;;;;6.55;4.00;;;;;;;;;;4951179;28;20514;-59
2024/01/29 02:27:59;;;;;;;6.55;4.13;;;;;;;;;;4945156;29;20042;-61
2024/01/29 02:30:25;;;;;;;7.93;4.22;;;;;;;;;;4951449;29;20034;-61
2024/01/29 02:32:52;;;;;;;6.97;3.83;;;;;;;;;;4951659;28;20050;-62
2024/01/29 02:35:18;;;;;;;5.45;3.65;;;;;;;;;;4952068;29;20038;-63
2024/01/29 02:37:44;;;;;;;7.05;3.53;;;;;;;;;;4946421;29;20049;-62
2024/01/29 02:40:10;;;;;;;5.60;3.40;;;;;;;;;;4946567;29;20046;-61
2024/01/29 02:42:37;;;;;;;6.70;3.95;;;;;;;;;;4945830;29;20399;-62
2024/01/29 02:45:04;;;;;;;5.80;3.75;;;;;;;;;;4948572;28;20023;-61
2024/01/29 02:47:31;;;;;;;5.85;3.92;;;;;;;;;;4946866;28;20046;-63
2024/01/29 02:49:57;;;;;;;5.72;3.13;;;;;;;;;;4948590;28;20043;-61
2024/01/29 02:52:23;;;;;;;4.97;3.50;;;;;;;;;;4952495;28;20070;-61
2024/01/29 02:54:49;;;;;;;6.22;3.97;;;;;;;;;;4950450;29;20478;-62
2024/01/29 02:57:16;;;;;;;7.30;3.83;;;;;;;;;;4952045;29;20058;-62
2024/01/29 02:59:43;;;;;;;4.90;3.30;;;;;;;;;;4950524;28;20055;-61
2024/01/29 03:02:09;;;;;;;4.93;3.35;;;;;;;;;;4946166;29;20054;-61
2024/01/29 03:04:35;;;;;;;6.40;4.13;;;;;;;;;;4945036;29;20039;-61
2024/01/29 03:07:02;;;;;;;6.05;3.55;;;;;;;;;;4951871;29;20042;-61
2024/01/29 03:09:28;;;;;;;6.63;3.88;;;;;;;;;;4951740;28;20054;-60
2024/01/29 03:11:54;;;;;;;7.07;3.80;;;;;;;;;;4950696;29;20047;-61
2024/01/29 03:14:20;;;;;;;9.00;4.10;;;;;;;;;;4950975;28;20047;-59
2024/01/29 03:16:46;;;;;;;6.30;3.38;;;;;;;;;;4950757;29;20479;-60
2024/01/29 03:19:12;;;;;;;5.15;3.58;;;;;;;;;;4950140;28;20047;-61
2024/01/29 03:21:38;;;;;;;5.95;3.60;;;;;;;;;;4951071;29;20093;-60
2024/01/29 03:24:04;;;;;;;6.07;3.38;;;;;;;;;;4952199;29;20042;-59
2024/01/29 03:26:30;;;;;;;5.93;3.83;;;;;;;;;;4951369;28;20042;-62
2024/01/29 03:28:57;;;;;;;6.50;3.70;;;;;;;;;;4951350;29;20400;-60
2024/01/29 03:31:23;;;;;;;5.32;3.42;;;;;;;;;;4950109;29;20446;-60
2024/01/29 03:33:49;;;;;;;5.80;3.47;;;;;;;;;;4950103;28;20419;-60
2024/01/29 03:36:15;;;;;;;6.00;3.40;;;;;;;;;;4945700;28;20044;-60
2024/01/29 03:38:41;;;;;;;6.22;3.50;;;;;;;;;;4951389;29;20027;-60
2024/01/29 03:41:07;;;;;;;6.30;3.80;;;;;;;;;;4947692;28;20058;-60
2024/01/29 03:43:33;;;;;;;5.47;2.90;;;;;;;;;;4948154;28;20043;-59
2024/01/29 03:45:59;;;;;;;5.15;3.13;;;;;;;;;;4950072;28;20510;-60
2024/01/29 03:48:26;;;;;;;5.57;3.13;;;;;;;;;;4949219;29;20050;-60
2024/01/29 03:50:52;;;;;;;5.65;3.45;;;;;;;;;;4947074;28;20062;-60
2024/01/29 03:53:18;;;;;;;6.03;3.58;;;;;;;;;;4952350;28;20058;-60
2024/01/29 03:55:44;;;;;;;6.03;3.10;;;;;;;;;;4946590;29;20051;-60
2024/01/29 03:58:10;;;;;;;7.32;3.10;;;;;;;;;;4952057;28;20055;-60
2024/01/29 04:00:38;;;;;;;6.88;3.28;;;;;;;;;;4939392;29;20035;-61
2024/01/29 04:03:06;;;;;;;4.28;3.00;;;;;;;;;;4942106;29;20398;-60
2024/01/29 04:05:32;;;;;;;8.45;3.47;;;;;;;;;;4948984;29;20715;-60
2024/01/29 04:07:59;;;;;;;4.72;3.13;;;;;;;;;;4946159;29;20391;-60
2024/01/29 04:10:25;;;;;;;7.03;3.42;;;;;;;;;;4950641;28;20042;-60
2024/01/29 04:12:52;;;;;;;5.50;2.92;;;;;;;;;;4943896;29;20403;-60
2024/01/29 04:15:18;;;;;;;5.70;3.00;;;;;;;;;;4946778;29;20506;-61
2024/01/29 04:17:44;;;;;;;5.90;3.13;;;;;;;;;;4948656;28;20039;-61
2024/01/29 04:20:10;;;;;;;4.22;2.65;;;;;;;;;;4950286;28;20490;-60
2024/01/29 04:22:36;;;;;;;5.63;2.95;;;;;;;;;;4950060;29;20487;-60
2024/01/29 04:25:05;;;;;;;7.82;3.20;;;;;;;;;;4949655;28;20394;-60
2024/01/29 04:27:31;;;;;;;4.38;2.63;;;;;;;;;;4950010;28;20052;-60
2024/01/29 04:29:57;;;;;;;5.55;3.08;;;;;;;;;;4949613;28;20054;-60
2024/01/29 04:32:23;;;;;;;6.63;3.30;;;;;;;;;;4947905;28;20055;-60
2024/01/29 04:34:49;;;;;;;6.03;3.65;;;;;;;;;;4949226;28;20047;-60
2024/01/29 04:37:15;;;;;;;6.18;3.08;;;;;;;;;;4949641;28;20043;-61
2024/01/29 04:39:41;;;;;;;5.72;3.03;;;;;;;;;;4950940;28;20055;-60
2024/01/29 04:42:09;;;;;;;5.07;2.85;;;;;;;;;;4917534;29;20039;-62
2024/01/29 04:44:35;;;;;;;5.30;3.35;;;;;;;;;;4951319;29;20035;-60
2024/01/29 04:47:01;;;;;;;4.80;3.28;;;;;;;;;;4954602;28;20050;-61
2024/01/29 04:49:27;;;;;;;7.15;3.70;;;;;;;;;;4952493;28;20395;-61
2024/01/29 04:51:53;;;;;;;6.47;3.10;;;;;;;;;;4948322;28;20070;-61
2024/01/29 04:54:19;;;;;;;5.68;3.47;;;;;;;;;;4951277;29;20055;-60
2024/01/29 04:56:46;;;;;;;12.88;5.30;;;;;;;;;;4954395;28;20043;-61
2024/01/29 04:59:12;;;;;;;11.93;6.30;;;;;;;;;;4954475;29;20035;-59
2024/01/29 05:01:38;;;;;;;7.65;3.95;;;;;;;;;;4951259;28;20058;-59
2024/01/29 05:04:04;;;;;;;5.57;3.10;;;;;;;;;;4952995;29;20055;-60
2024/01/29 05:06:30;;;;;;;4.75;3.47;;;;;;;;;;4952881;28;20047;-60
2024/01/29 05:08:57;;;;;;;7.13;3.78;;;;;;;;;;4953888;28;20050;-59
2024/01/29 05:11:23;;;;;;;6.47;4.07;;;;;;;;;;4947953;28;20043;-60
2024/01/29 05:13:49;;;;;;;4.63;3.40;;;;;;;;;;4950026;28;20040;-60
2024/01/29 05:16:15;;;;;;;5.97;3.55;;;;;;;;;;4950407;28;20043;-60
2024/01/29 05:18:42;;;;;;;5.43;3.60;;;;;;;;;;4953779;28;20047;-60
2024/01/29 05:21:08;;;;;;;6.32;3.97;;;;;;;;;;4952946;28;20062;-60
2024/01/29 05:23:34;;;;;;;6.43;4.10;;;;;;;;;;4952880;28;20380;-59
2024/01/29 05:26:00;;;;;;;5.43;3.45;;;;;;;;;;4951960;28;20039;-60
2024/01/29 05:28:26;;;;;;;6.50;3.28;;;;;;;;;;4953962;28;20050;-60
2024/01/29 05:30:52;;;;;;;6.50;4.10;;;;;;;;;;4948588;29;20043;-60
2024/01/29 05:33:19;;;;;;;10.40;4.35;;;;;;;;;;4948068;29;20035;-60
2024/01/29 05:35:45;;;;;;;8.35;4.65;;;;;;;;;;4949359;28;20047;-61
2024/01/29 05:38:11;;;;;;;9.13;3.47;;;;;;;;;;4954107;28;20046;-60
2024/01/29 05:40:37;;;;;;;6.72;3.67;;;;;;;;;;4953045;28;20051;-61
2024/01/29 05:43:03;;;;;;;6.90;4.13;;;;;;;;;;4949997;28;20406;-61
2024/01/29 05:45:29;;;;;;;10.70;4.15;;;;;;;;;;4950914;28;20027;-59
2024/01/29 05:47:55;;;;;;;9.23;4.68;;;;;;;;;;4948364;29;20376;-61
2024/01/29 05:50:21;;;;;;;6.93;4.10;;;;;;;;;;4953686;28;20042;-61
2024/01/29 05:52:48;;;;;;;4.97;3.30;;;;;;;;;;4950516;28;20054;-61
2024/01/29 05:55:14;;;;;;;8.40;3.78;;;;;;;;;;4944221;28;20051;-60
2024/01/29 05:57:40;;;;;;;6.93;3.63;;;;;;;;;;4942680;28;20422;-61
2024/01/29 06:00:10;;;;;;;5.68;3.50;;;;;;;;;;4945022;28;20051;-61
2024/01/29 06:02:42;;;;;;;8.07;3.60;;;;;;;;;;4952826;28;20043;-61
2024/01/29 06:05:11;;;;;;;6.70;3.38;;;;;;;;;;4951857;28;20042;-60
2024/01/29 06:07:41;;;;;;;4.43;3.40;;;;;;;;;;4950900;28;20038;-60
2024/01/29 06:10:09;;;;;;;7.50;3.00;;;;;;;;;;4952600;28;20055;-60
2024/01/29 06:12:35;;;;;;;5.95;2.80;;;;;;;;;;4948828;29;20488;-60
2024/01/29 06:15:01;;;;;;;5.45;3.00;;;;;;;;;;4951012;28;20054;-61
2024/01/29 06:17:31;;;;;;;5.88;3.20;;;;;;;;;;4951640;28;20035;-60
2024/01/29 06:19:57;;;;;;;6.03;3.40;;;;;;;;;;4934156;29;20046;-60
2024/01/29 06:22:23;;;;;;;10.00;4.45;;;;;;;;;;4952548;28;20043;-60
2024/01/29 06:24:49;;;;;;;6.55;3.97;;;;;;;;;;4951374;29;20047;-60
2024/01/29 06:27:15;;;;;;;5.82;3.53;;;;;;;;;;4947527;28;20047;-60
2024/01/29 06:29:41;;;;;;;8.73;3.88;;;;;;;;;;4948670;29;20047;-60
2024/01/29 06:32:08;;;;;;;5.15;3.47;;;;;;;;;;4950459;29;20046;-60
2024/01/29 06:34:35;;;;;;;5.93;2.85;;;;;;;;;;4947952;29;20035;-58
2024/01/29 06:37:01;;;;;;;6.72;3.50;;;;;;;;;;4950780;29;20039;-60
2024/01/29 06:39:28;;;;;;;6.85;3.05;;;;;;;;;;4951306;29;20043;-60
2024/01/29 06:41:54;;;;;;;5.70;3.38;;;;;;;;;;4947045;29;20047;-60
2024/01/29 06:44:20;;;;;;;6.40;3.50;;;;;;;;;;4935051;29;20051;-60
2024/01/29 06:46:46;;;;;;;12.95;5.78;;;;;;;;;;4935044;29;20054;-60
2024/01/29 06:49:27;;;;;;;12.18;5.13;;;;;;;;;;4933694;29;20507;-60
2024/01/29 06:51:54;;;;;;;7.55;3.97;;;;;;;;;;4964488;28;20226;-60
2024/01/29 06:54:20;;;;;;;6.25;4.25;;;;;;;;;;4941130;29;20059;-59
2024/01/29 06:56:46;;;;;;;10.90;7.28;;;;;;;;;;4950853;29;20467;-60
2024/01/29 06:59:13;;;;;;;12.60;7.85;;;;;;;;;;4943832;29;20054;-60
2024/01/29 07:01:40;;;;;;;12.65;6.20;;;;;;;;;;4927916;29;20047;-59
2024/01/29 07:04:06;;;;;;;7.93;4.60;;;;;;;;;;4931519;29;20055;-60
2024/01/29 07:06:33;;;;;;;7.07;4.18;;;;;;;;;;4948667;28;20070;-61
2024/01/29 07:08:59;;;;;;;6.63;3.80;;;;;;;;;;4933618;29;20411;-61
2024/01/29 07:11:26;;;;;;;7.93;4.20;;;;;;;;;;4946707;29;20529;-62
2024/01/29 07:13:52;;;;;;;8.85;5.40;;;;;;;;;;4951007;29;20275;-60
2024/01/29 07:16:18;;;;;;;8.18;4.28;;;;;;;;;;4945532;29;20036;-60
2024/01/29 07:18:44;;;;;;;10.05;5.30;;;;;;;;;;4948900;28;20074;-59
2024/01/29 07:21:10;;;;;;;10.23;4.88;;;;;;;;;;4951074;28;20035;-59
2024/01/29 07:23:36;;;;;;;9.10;4.00;;;;;;;;;;4943476;28;20054;-61
2024/01/29 07:26:03;;;;;;;6.03;4.13;;;;;;;;;;4950773;28;20023;-61
2024/01/29 07:28:29;;;;;;;7.18;3.97;;;;;;;;;;4949822;28;20054;-61
2024/01/29 07:30:55;;;;;;;5.82;3.53;;;;;;;;;;4949927;28;20395;-60
2024/01/29 07:33:21;;;;;;;5.32;3.20;;;;;;;;;;4948872;28;20050;-60
2024/01/29 07:35:48;;;;;;;4.90;3.10;;;;;;;;;;4949439;28;20073;-62
2024/01/29 07:38:14;;;;;;;6.55;3.42;;;;;;;;;;4949353;28;20058;-61
2024/01/29 07:40:41;;;;;;;6.65;3.45;;;;;;;;;;4949259;28;20055;-62
2024/01/29 07:43:07;;;;;;;5.55;3.97;;;;;;;;;;4947078;28;20116;-61
2024/01/29 07:45:33;;;;;;;5.57;3.55;;;;;;;;;;4945236;28;20042;-61
2024/01/29 07:48:00;;;;;;;7.15;3.42;;;;;;;;;;4947154;28;20038;-60
2024/01/29 07:50:26;;;;;;;6.50;3.33;;;;;;;;;;4946126;28;20055;-61
2024/01/29 07:52:52;;;;;;;6.90;3.75;;;;;;;;;;4942019;28;20039;-61
2024/01/29 07:55:19;;;;;;;7.05;3.35;;;;;;;;;;4943108;28;20400;-60
2024/01/29 07:57:46;;;;;;;8.73;4.05;;;;;;;;;;4948837;28;20502;-61
2024/01/29 08:00:13;;;;;;;6.45;3.33;;;;;;;;;;4952883;28;20050;-61
2024/01/29 08:02:39;;;;;;;6.93;3.83;;;;;;;;;;4953085;28;20035;-61
2024/01/29 08:05:05;;;;;;;5.75;3.67;;;;;;;;;;4936722;28;20031;-61
2024/01/29 08:07:34;;;;;;;7.13;3.58;;;;;;;;;;4953234;28;20034;-61
2024/01/29 08:10:01;;;;;;;6.25;4.00;;;;;;;;;;4952795;28;20394;-61
2024/01/29 08:12:30;;;;;;;14.13;8.45;;;;;;;;;;4953172;28;20050;-61
2024/01/29 08:14:56;;;;;;;21.63;10.93;;;;;;;;;;4954797;28;20479;-61
2024/01/29 08:17:22;;;;;;;28.13;14.52;;;;;;;;;;4954854;28;20055;-61
2024/01/29 08:19:49;;;;;;;28.90;15.77;;;;;;;;;;4958648;28;20035;-61
2024/01/29 08:22:15;;;;;;;17.42;9.75;;;;;;;;;;4955562;28;20116;-61
2024/01/29 08:24:41;;;;;;;19.52;11.73;;;;;;;;;;4954109;28;20035;-61
2024/01/29 08:27:07;;;;;;;22.60;14.30;;;;;;;;;;4952890;28;20047;-61
2024/01/29 08:29:33;;;;;;;18.42;11.18;;;;;;;;;;4952534;28;20058;-59
2024/01/29 08:32:00;;;;;;;16.48;10.48;;;;;;;;;;4946407;28;20391;-61
2024/01/29 08:34:29;;;;;;;13.45;9.38;;;;;;;;;;4956616;28;20039;-59
2024/01/29 08:36:56;;;;;;;10.90;7.03;;;;;;;;;;4956024;28;20043;-60
2024/01/29 08:39:23;;;;;;;12.63;6.78;;;;;;;;;;4949806;28;20293;-59
2024/01/29 08:41:49;;;;;;;11.18;6.70;;;;;;;;;;4953800;28;20043;-61
2024/01/29 08:44:16;;;;;;;10.60;7.20;;;;;;;;;;4954342;28;20046;-60
2024/01/29 08:46:42;;;;;;;15.63;9.30;;;;;;;;;;4953365;28;20035;-60
2024/01/29 08:49:08;;;;;;;17.42;9.95;;;;;;;;;;4948904;28;20050;-61
2024/01/29 08:51:35;;;;;;;13.00;7.60;;;;;;;;;;4946854;28;20051;-60
2024/01/29 08:54:01;;;;;;;11.52;7.30;;;;;;;;;;4944169;28;20487;-60
2024/01/29 08:56:27;;;;;;;11.98;7.60;;;;;;;;;;4943594;28;20066;-60
2024/01/29 08:58:53;;;;;;;10.02;7.13;;;;;;;;;;4956658;28;20043;-61
2024/01/29 09:01:19;;;;;;;12.95;7.63;;;;;;;;;;4953963;28;20047;-62
2024/01/29 09:03:45;;;;;;;11.40;7.03;;;;;;;;;;4954910;28;20031;-61
2024/01/29 09:06:13;;;;;;;11.15;7.25;;;;;;;;;;4955656;28;20027;-60
2024/01/29 09:08:41;;;;;;;11.52;7.00;;;;;;;;;;4952245;28;20058;-61
2024/01/29 09:11:07;;;;;;;13.50;7.13;;;;;;;;;;4953498;28;20419;-60
2024/01/29 09:13:33;;;;;;;13.43;7.93;;;;;;;;;;4952820;28;20372;-60
2024/01/29 09:16:00;;;;;;;26.73;13.95;;;;;;;;;;4955786;28;20039;-61
2024/01/29 09:18:26;;;;;;;18.83;10.82;;;;;;;;;;4955163;28;20051;-61
2024/01/29 09:20:52;;;;;;;13.38;8.32;;;;;;;;;;4956492;28;20034;-61
2024/01/29 09:23:18;;;;;;;15.10;7.25;;;;;;;;;;4951065;28;20043;-61
2024/01/29 09:25:44;;;;;;;10.05;7.13;;;;;;;;;;4951631;28;20047;-61
2024/01/29 09:28:11;;;;;;;11.88;7.15;;;;;;;;;;4952640;28;20055;-61
2024/01/29 09:30:37;;;;;;;12.40;7.30;;;;;;;;;;4952760;28;20046;-60
2024/01/29 09:33:03;;;;;;;12.60;6.97;;;;;;;;;;4948804;28;20031;-59
2024/01/29 09:35:29;;;;;;;12.30;7.00;;;;;;;;;;4954781;28;20042;-59
2024/01/29 09:37:56;;;;;;;8.45;5.95;;;;;;;;;;4953017;28;20054;-59
2024/01/29 09:40:23;;;;;;;11.70;6.80;;;;;;;;;;4952239;28;20062;-60
2024/01/29 09:42:50;;;;;;;12.15;6.78;;;;;;;;;;4953630;28;20046;-60
2024/01/29 09:45:23;;;;;;;10.70;6.30;;;;;;;;;;4951556;28;20047;-60
2024/01/29 09:47:54;;;;;;;12.45;7.78;;;;;;;;;;4951563;28;20027;-59
2024/01/29 09:50:22;;;;;;;12.75;7.93;;;;;;;;;;4943393;28;20500;-60
2024/01/29 09:52:51;;;;;;;10.40;6.78;;;;;;;;;;4942975;28;20499;-61
2024/01/29 09:55:17;;;;;;;16.67;8.40;;;;;;;;;;4951078;28;20051;-61
2024/01/29 09:57:43;;;;;;;10.57;7.40;;;;;;;;;;4952551;28;20050;-60
2024/01/29 10:00:12;;;;;;;13.75;8.32;;;;;;;;;;4955188;28;20051;-61
2024/01/29 10:02:41;;;;;;;10.80;7.03;;;;;;;;;;4950514;28;20050;-62
2024/01/29 10:05:11;;;;;;;11.85;7.38;;;;;;;;;;4951173;28;20514;-61
2024/01/29 10:07:38;;;;;;;12.77;8.30;;;;;;;;;;4954595;28;20522;-60
2024/01/29 10:10:08;;;;;;;15.55;8.77;;;;;;;;;;4949404;28;20054;-61
2024/01/29 10:12:34;;;;;;;18.73;9.80;;;;;;;;;;4955606;28;20042;-59
2024/01/29 10:15:00;;;;;;;15.32;8.98;;;;;;;;;;4959107;28;20045;-60
2024/01/29 10:17:27;;;;;;;18.60;10.27;;;;;;;;;;4956158;28;20050;-61
2024/01/29 10:19:53;;;;;;;15.57;8.90;;;;;;;;;;4955963;28;20034;-59
2024/01/29 10:22:24;;;;;;;16.38;9.02;;;;;;;;;;4949827;28;20042;-59
2024/01/29 10:25:03;;;;;;;12.77;8.10;;;;;;;;;;4950228;28;20042;-61
2024/01/29 10:27:30;;;;;;;19.13;10.68;;;;;;;;;;4949229;28;20047;-60
2024/01/29 10:29:56;;;;;;;21.02;10.38;;;;;;;;;;4951816;28;20038;-61
2024/01/29 10:32:23;;;;;;;22.17;9.88;;;;;;;;;;4947041;28;20038;-61
2024/01/29 10:34:49;;;;;;;15.35;8.05;;;;;;;;;;4952862;28;20047;-61
2024/01/29 10:37:16;;;;;;;13.98;7.55;;;;;;;;;;4948945;28;20047;-60
2024/01/29 10:39:42;;;;;;;13.57;7.40;;;;;;;;;;4951107;28;20031;-60
2024/01/29 10:42:09;;;;;;;24.58;10.80;;;;;;;;;;4947380;28;20051;-60
2024/01/29 10:44:38;;;;;;;14.93;8.82;;;;;;;;;;4949575;28;20051;-60
2024/01/29 10:47:10;;;;;;;15.30;8.30;;;;;;;;;;4946809;28;20043;-60
2024/01/29 10:49:37;;;;;;;15.05;8.20;;;;;;;;;;4944114;28;20055;-60
2024/01/29 10:52:04;;;;;;;13.73;7.80;;;;;;;;;;4944313;28;20040;-60
2024/01/29 10:54:32;;;;;;;12.18;7.22;;;;;;;;;;4948450;28;20039;-61
2024/01/29 10:56:59;;;;;;;13.07;7.20;;;;;;;;;;4953614;28;20039;-61
2024/01/29 10:59:26;;;;;;;12.30;7.38;;;;;;;;;;4953485;28;20043;-61
2024/01/29 11:01:54;;;;;;;12.63;6.93;;;;;;;;;;4944374;28;20043;-60
2024/01/29 11:04:21;;;;;;;9.50;6.47;;;;;;;;;;4953261;28;20042;-59
2024/01/29 11:06:55;;;;;;;11.35;6.95;;;;;;;;;;4952981;28;20384;-60
2024/01/29 11:09:26;;;;;;;11.60;6.90;;;;;;;;;;4944728;28;20043;-60
2024/01/29 11:11:54;;;;;;;15.40;6.85;;;;;;;;;;4949747;28;20027;-61
2024/01/29 11:14:24;;;;;;;11.68;6.97;;;;;;;;;;4955714;28;20050;-60
2024/01/29 11:16:53;;;;;;;11.15;7.20;;;;;;;;;;4954248;28;20431;-61
2024/01/29 11:19:24;;;;;;;11.60;7.50;;;;;;;;;;4949184;28;20055;-61
2024/01/29 11:21:50;;;;;;;19.73;8.30;;;;;;;;;;4948211;28;20030;-60
2024/01/29 11:24:21;;;;;;;13.07;7.70;;;;;;;;;;4952220;28;20063;-61
2024/01/29 11:26:47;;;;;;;11.05;7.40;;;;;;;;;;4948567;28;20046;-61
2024/01/29 11:29:18;;;;;;;11.82;8.00;;;;;;;;;;4947545;28;20043;-61
2024/01/29 11:31:45;;;;;;;11.52;7.55;;;;;;;;;;4949187;28;20062;-61
2024/01/29 11:34:15;;;;;;;13.65;8.15;;;;;;;;;;4947447;28;20035;-60
2024/01/29 11:36:41;;;;;;;12.60;7.97;;;;;;;;;;4948860;28;20624;-61
2024/01/29 11:39:14;;;;;;;12.23;7.97;;;;;;;;;;4950365;28;20035;-61
2024/01/29 11:41:47;;;;;;;11.75;7.60;;;;;;;;;;4949350;28;20055;-62
2024/01/29 11:44:18;;;;;;;11.20;8.10;;;;;;;;;;4946879;28;20030;-61
2024/01/29 11:46:44;;;;;;;12.60;7.63;;;;;;;;;;4950010;28;20376;-62
2024/01/29 11:49:10;;;;;;;12.02;8.48;;;;;;;;;;4944264;28;20048;-61
2024/01/29 11:51:40;;;;;;;12.18;7.47;;;;;;;;;;4946031;28;20042;-61
2024/01/29 11:54:06;;;;;;;13.32;8.23;;;;;;;;;;4953815;28;20047;-61
2024/01/29 11:56:32;;;;;;;11.23;8.25;;;;;;;;;;4953270;28;20043;-62
2024/01/29 11:59:03;;;;;;;11.35;7.63;;;;;;;;;;4940860;28;20506;-61
2024/01/29 12:01:32;;;;;;;15.88;8.15;;;;;;;;;;4953626;28;20406;-62
2024/01/29 12:03:59;;;;;;;16.17;9.27;;;;;;;;;;4954193;28;20040;-61
2024/01/29 12:06:26;;;;;;;15.38;10.80;;;;;;;;;;4951944;28;20413;-61
2024/01/29 12:08:57;;;;;;;22.00;11.10;;;;;;;;;;4953320;28;20043;-62
2024/01/29 12:11:25;;;;;;;17.23;10.23;;;;;;;;;;4954438;28;20047;-63
2024/01/29 12:13:55;;;;;;;15.57;11.07;;;;;;;;;;4952624;28;20039;-62
2024/01/29 12:16:24;;;;;;;18.42;11.13;;;;;;;;;;4953000;28;20059;-61
2024/01/29 12:18:50;;;;;;;20.53;10.47;;;;;;;;;;4952106;28;20078;-62
2024/01/29 12:21:17;;;;;;;16.90;10.13;;;;;;;;;;4953008;28;20287;-61
2024/01/29 12:23:44;;;;;;;15.82;8.25;;;;;;;;;;4951955;28;20543;-62
2024/01/29 12:26:11;;;;;;;17.30;8.63;;;;;;;;;;4934678;29;20400;-62
2024/01/29 12:28:38;;;;;;;12.23;8.38;;;;;;;;;;4938746;28;20039;-62
2024/01/29 12:31:06;;;;;;;12.13;7.25;;;;;;;;;;4938722;29;20031;-62
2024/01/29 12:33:34;;;;;;;12.82;7.35;;;;;;;;;;4951916;28;20047;-62
2024/01/29 12:36:14;;;;;;;14.23;8.68;;;;;;;;;;4964266;28;20031;-62
2024/01/29 12:38:41;;;;;;;16.83;12.07;;;;;;;;;;4953178;28;20501;-61
2024/01/29 12:41:08;;;;;;;18.15;11.20;;;;;;;;;;4952955;28;20039;-62
2024/01/29 12:43:34;;;;;;;15.00;8.70;;;;;;;;;;4924057;29;20283;-61
2024/01/29 12:46:05;;;;;;;17.45;11.32;;;;;;;;;;4931859;29;20023;-62
2024/01/29 12:48:31;;;;;;;14.35;9.60;;;;;;;;;;4952205;28;20047;-62
2024/01/29 12:50:57;;;;;;;11.27;7.65;;;;;;;;;;4918094;28;20105;-61
2024/01/29 12:53:24;;;;;;;14.32;8.38;;;;;;;;;;4935486;28;20046;-62
2024/01/29 12:55:50;;;;;;;11.30;7.63;;;;;;;;;;4952332;28;20387;-59
2024/01/29 12:58:16;;;;;;;12.23;7.15;;;;;;;;;;4960107;28;20049;-59
2024/01/29 13:00:45;;;;;;;11.52;8.40;;;;;;;;;;4952927;28;20042;-59
2024/01/29 13:03:12;;;;;;;14.38;7.95;;;;;;;;;;4955368;28;20058;-59
2024/01/29 13:05:38;;;;;;;13.50;7.85;;;;;;;;;;4953476;28;20132;-59
2024/01/29 13:08:05;;;;;;;14.00;9.95;;;;;;;;;;4953317;28;20058;-59
2024/01/29 13:10:31;;;;;;;18.48;7.78;;;;;;;;;;4955164;28;20054;-58
2024/01/29 13:13:03;;;;;;;8.15;6.43;;;;;;;;;;4954091;28;20298;-60
2024/01/29 13:15:29;;;;;;;10.45;5.97;;;;;;;;;;4952458;28;20043;-60
2024/01/29 13:17:56;;;;;;;9.45;5.97;;;;;;;;;;4946811;28;20032;-59
2024/01/29 13:20:22;;;;;;;11.93;5.40;;;;;;;;;;4949679;28;20035;-60
2024/01/29 13:22:48;;;;;;;10.70;5.75;;;;;;;;;;4953946;28;20035;-59
2024/01/29 13:25:15;;;;;;;12.07;6.35;;;;;;;;;;4951872;28;20055;-59
2024/01/29 13:27:41;;;;;;;12.85;7.85;;;;;;;;;;4955186;28;20031;-58
2024/01/29 13:30:08;;;;;;;14.85;7.57;;;;;;;;;;4953333;28;20044;-58
2024/01/29 13:32:36;;;;;;;11.27;7.55;;;;;;;;;;4949755;28;20038;-59
2024/01/29 13:35:02;;;;;;;13.85;8.65;;;;;;;;;;4945832;28;20051;-60
2024/01/29 13:37:29;;;;;;;14.07;7.82;;;;;;;;;;4952103;28;20058;-60
2024/01/29 13:39:55;;;;;;;12.25;7.40;;;;;;;;;;4952288;28;20057;-59
2024/01/29 13:42:21;;;;;;;9.85;6.63;;;;;;;;;;4952904;28;20055;-60
2024/01/29 13:44:47;;;;;;;18.63;7.68;;;;;;;;;;4946382;28;20051;-58
2024/01/29 13:47:13;;;;;;;13.73;7.18;;;;;;;;;;4945000;28;20047;-60
2024/01/29 13:49:39;;;;;;;14.48;6.90;;;;;;;;;;4953865;28;20045;-60
2024/01/29 13:52:06;;;;;;;9.65;6.63;;;;;;;;;;4950720;28;20047;-59
2024/01/29 13:54:33;;;;;;;12.70;7.53;;;;;;;;;;4955953;28;20047;-60
2024/01/29 13:56:59;;;;;;;11.38;7.47;;;;;;;;;;4952016;28;20507;-60
2024/01/29 13:59:26;;;;;;;14.52;10.43;;;;;;;;;;4951438;28;20051;-60
2024/01/29 14:01:52;;;;;;;21.75;12.05;;;;;;;;;;4954957;28;20603;-59
2024/01/29 14:04:18;;;;;;;26.42;15.60;;;;;;;;;;4952719;28;20062;-59
2024/01/29 14:06:55;;;;;;;18.02;11.10;;;;;;;;;;4952799;28;20047;-59
2024/01/29 14:09:21;;;;;;;14.48;9.00;;;;;;;;;;4953279;28;20504;-60
2024/01/29 14:11:48;;;;;;;13.00;7.47;;;;;;;;;;4952742;28;20051;-60
2024/01/29 14:14:14;;;;;;;12.20;6.80;;;;;;;;;;4952197;28;20046;-59
2024/01/29 14:16:41;;;;;;;12.65;7.00;;;;;;;;;;4950717;28;20039;-59
2024/01/29 14:19:07;;;;;;;15.30;7.50;;;;;;;;;;4953124;28;20533;-58
2024/01/29 14:21:34;;;;;;;12.35;7.47;;;;;;;;;;4950578;28;20061;-60
2024/01/29 14:24:00;;;;;;;23.20;9.32;;;;;;;;;;4951751;28;20039;-61
2024/01/29 14:26:26;;;;;;;19.00;8.35;;;;;;;;;;4950254;28;20046;-59
2024/01/29 14:28:53;;;;;;;20.05;8.60;;;;;;;;;;4952415;28;20046;-58
2024/01/29 14:31:19;;;;;;;15.63;7.53;;;;;;;;;;4948520;28;20055;-59